Time;durP1;ratioP1;P1;durP2;ratioP2;P2;SDS_P1;SDS_P2;PMS_P1;PMS_P2;Temp;Humidity;BMP_temperature;BMP_pressure;BME280_temperature;BME280_humidity;BME280_pressure;Samples;Min_cycle;Max_cycle;Signal;HPM_P1;HPM_P2
2021/12/14 00:01:35;;;;;;;0.17;0.17;;;7.70;99.90;;;;;;4974600;28;20035;-63
2021/12/14 00:04:31;;;;;;;0.20;0.20;;;7.70;99.90;;;;;;4975373;28;20507;-63
2021/12/14 00:07:01;;;;;;;0.55;0.55;;;7.70;99.90;;;;;;4973815;28;20078;-62
2021/12/14 00:09:32;;;;;;;2.17;1.98;;;7.70;99.90;;;;;;4975178;28;20031;-63
2021/12/14 00:12:53;;;;;;;0.40;0.40;;;7.80;99.90;;;;;;4973959;28;20031;-63
2021/12/14 00:15:05;;;;;;;0.20;0.20;;;7.80;99.90;;;;;;4975602;28;20042;-63
2021/12/14 00:17:46;;;;;;;0.20;0.20;;;7.90;99.90;;;;;;4975421;28;20066;-64
2021/12/14 00:20:39;;;;;;;0.08;0.08;;;7.90;99.90;;;;;;4974283;28;20034;-63
2021/12/14 00:25:41;;;;;;;0.90;0.70;;;7.90;99.90;;;;;;4973652;28;20046;-63
2021/12/14 00:28:29;;;;;;;1.38;1.27;;;7.90;99.90;;;;;;4975181;28;20393;-63
2021/12/14 00:31:00;;;;;;;5.22;0.77;;;7.80;99.90;;;;;;4973915;28;20039;-63
2021/12/14 00:33:34;;;;;;;0.08;0.08;;;7.70;99.90;;;;;;4974764;28;20039;-64
2021/12/14 00:36:03;;;;;;;0.00;0.00;;;7.70;99.90;;;;;;4974953;28;20125;-63
2021/12/14 00:38:30;;;;;;;1.20;1.15;;;7.70;99.90;;;;;;4974820;28;20027;-63
2021/12/14 00:41:05;;;;;;;7.57;1.73;;;7.60;99.90;;;;;;4974576;28;20046;-63
2021/12/14 00:43:32;;;;;;;1.55;1.35;;;7.60;99.90;;;;;;4973581;28;20035;-63
2021/12/14 00:45:58;;;;;;;1.13;1.05;;;7.70;99.90;;;;;;4974398;28;20049;-63
2021/12/14 00:48:24;;;;;;;0.20;0.20;;;7.90;99.90;;;;;;4974789;28;20034;-63
2021/12/14 00:50:55;;;;;;;0.10;0.10;;;7.90;99.90;;;;;;4974677;28;20035;-63
2021/12/14 00:53:22;;;;;;;0.88;0.80;;;8.00;99.90;;;;;;4973254;28;20062;-63
2021/12/14 00:55:52;;;;;;;0.38;0.38;;;8.00;99.90;;;;;;4974469;28;20066;-64
2021/12/14 00:58:20;;;;;;;1.15;1.10;;;8.00;99.90;;;;;;4974298;28;20499;-62
2021/12/14 01:01:00;;;;;;;0.75;0.75;;;8.00;99.90;;;;;;4974148;28;20479;-62
2021/12/14 01:03:30;;;;;;;1.60;1.38;;;8.00;99.90;;;;;;4973430;28;20047;-62
2021/12/14 01:05:58;;;;;;;0.50;0.50;;;8.00;99.90;;;;;;4974225;28;20121;-62
2021/12/14 01:08:34;;;;;;;0.90;0.65;;;8.00;99.90;;;;;;4974215;28;20293;-62
2021/12/14 01:11:39;;;;;;;1.85;1.45;;;8.00;99.90;;;;;;4957353;28;20035;-62
2021/12/14 01:14:15;;;;;;;1.65;0.95;;;7.90;99.90;;;;;;4974617;28;20043;-62
2021/12/14 01:17:05;;;;;;;3.92;0.43;;;7.90;99.90;;;;;;4972760;28;20030;-63
2021/12/14 01:19:32;;;;;;;1.40;1.35;;;7.90;99.90;;;;;;4973083;28;20035;-63
2021/12/14 01:25:02;;;;;;;0.63;0.63;;;7.80;99.90;;;;;;4972623;28;20049;-63
2021/12/14 01:27:40;;;;;;;0.45;0.45;;;7.80;99.90;;;;;;4973003;28;20121;-63
2021/12/14 01:30:17;;;;;;;2.20;1.75;;;7.70;99.90;;;;;;4973849;28;20125;-63
2021/12/14 01:32:47;;;;;;;1.65;1.55;;;7.70;99.90;;;;;;4974049;28;20035;-63
2021/12/14 01:35:19;;;;;;;0.73;0.73;;;7.70;99.90;;;;;;4972520;28;20069;-63
2021/12/14 01:37:59;;;;;;;1.98;1.23;;;7.70;99.90;;;;;;4973083;28;20042;-63
2021/12/14 01:40:53;;;;;;;2.17;1.05;;;7.80;99.90;;;;;;4972797;28;20042;-63
2021/12/14 01:43:18;;;;;;;2.33;1.45;;;7.80;99.90;;;;;;4972539;28;20046;-63
2021/12/14 01:45:45;;;;;;;1.85;1.75;;;7.80;99.90;;;;;;4973424;28;20090;-64
2021/12/14 01:48:11;;;;;;;2.40;1.42;;;7.90;99.90;;;;;;4973577;28;20395;-64
2021/12/14 01:50:46;;;;;;;0.15;0.15;;;7.90;99.90;;;;;;4973628;28;20050;-64
2021/12/14 01:53:14;;;;;;;2.10;1.90;;;7.90;99.90;;;;;;4972704;28;20114;-63
2021/12/14 01:55:50;;;;;;;0.50;0.50;;;7.80;99.90;;;;;;4973430;28;20035;-63
2021/12/14 01:58:17;;;;;;;1.10;1.08;;;7.90;99.90;;;;;;4972398;28;20578;-63
2021/12/14 02:00:53;;;;;;;2.63;1.17;;;7.80;99.90;;;;;;4971980;28;20038;-64
2021/12/14 02:03:20;;;;;;;1.60;1.33;;;7.80;99.90;;;;;;4956599;28;20035;-63
2021/12/14 02:05:50;;;;;;;0.73;0.52;;;7.90;99.90;;;;;;4973481;28;20142;-63
2021/12/14 02:08:25;;;;;;;0.52;0.50;;;7.80;99.90;;;;;;4972230;28;20038;-63
2021/12/14 02:10:53;;;;;;;2.38;2.17;;;7.80;99.90;;;;;;4971986;28;20038;-63
2021/12/14 02:13:46;;;;;;;1.08;0.88;;;7.70;99.90;;;;;;4973611;28;20034;-63
2021/12/14 02:16:18;;;;;;;0.20;0.20;;;7.70;99.90;;;;;;4973351;28;20027;-62
2021/12/14 02:18:49;;;;;;;0.95;0.95;;;7.60;99.90;;;;;;4973612;28;20042;-65
2021/12/14 02:21:16;;;;;;;2.38;2.28;;;7.60;99.90;;;;;;4973499;28;20038;-63
2021/12/14 02:23:47;;;;;;;0.00;0.00;;;7.60;99.90;;;;;;4955997;28;20043;-62
2021/12/14 02:26:22;;;;;;;2.80;1.77;;;7.70;99.90;;;;;;4973622;28;20448;-62
2021/12/14 02:28:49;;;;;;;1.42;1.35;;;7.70;99.90;;;;;;4973273;28;20110;-62
2021/12/14 02:31:21;;;;;;;1.13;0.95;;;7.80;99.90;;;;;;4972182;28;20122;-62
2021/12/14 02:33:51;;;;;;;0.47;0.47;;;7.80;99.90;;;;;;4973288;28;20035;-63
2021/12/14 02:36:29;;;;;;;1.85;1.75;;;7.80;99.90;;;;;;4973527;28;20039;-63
2021/12/14 02:39:08;;;;;;;0.43;0.43;;;7.80;99.90;;;;;;4973122;28;20039;-63
2021/12/14 02:41:50;;;;;;;2.67;1.52;;;7.70;99.90;;;;;;4972003;28;20042;-62
2021/12/14 02:44:16;;;;;;;1.63;1.52;;;7.80;99.90;;;;;;4973085;28;20054;-62
2021/12/14 02:46:48;;;;;;;3.42;3.13;;;7.70;99.90;;;;;;4972900;28;20050;-62
2021/12/14 02:49:20;;;;;;;0.25;0.25;;;7.70;99.90;;;;;;4975042;28;20427;-62
2021/12/14 02:51:52;;;;;;;0.30;0.30;;;7.70;99.90;;;;;;4975603;28;20039;-63
2021/12/14 02:54:28;;;;;;;1.73;1.63;;;7.70;99.90;;;;;;4975658;28;20035;-63
2021/12/14 02:57:06;;;;;;;0.95;0.95;;;7.70;99.90;;;;;;4976514;28;20043;-63
2021/12/14 02:59:36;;;;;;;1.08;1.02;;;7.60;99.90;;;;;;4976637;28;20110;-62
2021/12/14 03:02:07;;;;;;;1.67;1.25;;;7.60;99.90;;;;;;4975466;28;20034;-63
2021/12/14 03:04:52;;;;;;;1.52;1.42;;;7.70;99.90;;;;;;4975358;28;20034;-62
2021/12/14 03:07:24;;;;;;;1.73;1.58;;;7.70;99.90;;;;;;4959683;28;20042;-62
2021/12/14 03:12:35;;;;;;;2.10;2.00;;;7.60;99.90;;;;;;4981761;28;19965;-64
2021/12/14 03:15:07;;;;;;;0.95;0.90;;;7.60;99.90;;;;;;4959819;28;20058;-63
2021/12/14 03:17:33;;;;;;;2.88;1.50;;;7.50;99.90;;;;;;4974928;28;20031;-63
2021/12/14 03:20:22;;;;;;;1.95;1.67;;;7.50;99.90;;;;;;4974992;28;20047;-63
2021/12/14 03:23:04;;;;;;;1.30;1.23;;;7.50;99.90;;;;;;4976079;28;20062;-64
2021/12/14 03:25:33;;;;;;;0.40;0.40;;;7.50;99.90;;;;;;4976071;28;20114;-64
2021/12/14 03:27:59;;;;;;;0.57;0.57;;;7.40;99.90;;;;;;4975925;28;20498;-63
2021/12/14 03:30:25;;;;;;;0.93;0.93;;;7.40;99.90;;;;;;4976045;28;20038;-64
2021/12/14 03:32:55;;;;;;;0.55;0.55;;;7.40;99.90;;;;;;4976007;28;20038;-63
2021/12/14 03:35:42;;;;;;;0.10;0.10;;;7.40;99.90;;;;;;4975906;28;20038;-63
2021/12/14 03:38:16;;;;;;;27.92;2.88;;;7.30;99.90;;;;;;4974756;28;20507;-63
2021/12/14 03:40:43;;;;;;;0.90;0.82;;;7.40;99.90;;;;;;4975953;28;20042;-63
2021/12/14 03:43:13;;;;;;;5.55;2.17;;;7.40;99.90;;;;;;4975590;28;20038;-64
2021/12/14 03:45:39;;;;;;;0.95;0.95;;;7.40;99.90;;;;;;4975688;28;20042;-64
2021/12/14 03:48:05;;;;;;;0.32;0.32;;;7.30;99.90;;;;;;4974275;28;20038;-63
2021/12/14 03:50:41;;;;;;;0.52;0.52;;;7.30;99.90;;;;;;4974523;28;20026;-63
2021/12/14 03:53:12;;;;;;;0.43;0.43;;;7.30;99.90;;;;;;4974431;28;20037;-63
2021/12/14 03:55:43;;;;;;;0.35;0.35;;;7.30;99.90;;;;;;4975626;28;20038;-63
2021/12/14 03:58:14;;;;;;;0.68;0.68;;;7.30;99.90;;;;;;4975674;28;20043;-63
2021/12/14 04:00:56;;;;;;;0.20;0.20;;;7.20;99.90;;;;;;4974945;28;20038;-63
2021/12/14 04:03:26;;;;;;;1.38;1.27;;;7.20;99.90;;;;;;4974539;28;20034;-63
2021/12/14 04:05:53;;;;;;;4.18;3.03;;;7.20;99.90;;;;;;4975106;28;20388;-63
2021/12/14 04:08:21;;;;;;;0.47;0.45;;;7.10;99.90;;;;;;4974466;28;20490;-63
2021/12/14 04:10:49;;;;;;;1.98;1.88;;;7.20;99.90;;;;;;4975534;28;20030;-63
2021/12/14 04:13:28;;;;;;;0.35;0.35;;;7.10;99.90;;;;;;4975279;28;20027;-63
2021/12/14 04:15:55;;;;;;;0.52;0.52;;;7.10;99.90;;;;;;4974290;28;20125;-63
2021/12/14 04:18:21;;;;;;;1.73;1.42;;;7.10;99.90;;;;;;4975386;28;20027;-63
2021/12/14 04:20:50;;;;;;;0.52;0.52;;;7.20;99.90;;;;;;4975315;28;20065;-63
2021/12/14 04:23:23;;;;;;;2.20;1.65;;;7.20;99.90;;;;;;4975311;28;20031;-64
2021/12/14 04:25:51;;;;;;;4.32;1.45;;;7.10;99.90;;;;;;4973990;28;20039;-64
2021/12/14 04:28:24;;;;;;;0.80;0.80;;;7.10;99.90;;;;;;4973977;28;20089;-63
2021/12/14 04:30:50;;;;;;;4.05;3.50;;;7.10;99.90;;;;;;4975181;28;20035;-63
2021/12/14 04:33:27;;;;;;;0.55;0.55;;;7.10;99.90;;;;;;4975036;28;20129;-63
2021/12/14 04:35:54;;;;;;;1.08;0.82;;;7.10;99.90;;;;;;4973767;28;20073;-63
2021/12/14 04:38:27;;;;;;;1.20;1.17;;;7.00;99.90;;;;;;4973642;28;20101;-63
2021/12/14 04:52:23;;;;;;;1.15;1.05;;;7.00;99.90;;;;;;4986605;28;20042;-62
2021/12/14 04:55:12;;;;;;;3.20;2.08;;;7.00;99.90;;;;;;4989034;28;20070;-62
2021/12/14 04:57:47;;;;;;;34.10;2.90;;;6.90;99.90;;;;;;4973551;28;20102;-62
2021/12/14 05:00:50;;;;;;;0.60;0.60;;;7.00;99.90;;;;;;4974505;28;20062;-62
2021/12/14 05:03:28;;;;;;;0.70;0.70;;;7.00;99.90;;;;;;4972913;28;20101;-61
2021/12/14 05:06:09;;;;;;;0.15;0.15;;;7.00;99.90;;;;;;4983851;28;20468;-62
2021/12/14 05:11:08;;;;;;;3.70;2.42;;;6.90;99.90;;;;;;4974000;28;19918;-62
2021/12/14 05:13:40;;;;;;;1.80;1.20;;;6.80;99.90;;;;;;4988081;28;20038;-62
2021/12/14 05:16:08;;;;;;;0.30;0.30;;;6.80;99.90;;;;;;4972858;28;20065;-62
2021/12/14 05:18:34;;;;;;;3.67;2.80;;;6.80;99.90;;;;;;4973030;28;20042;-62
2021/12/14 05:21:01;;;;;;;2.13;1.70;;;6.70;99.90;;;;;;4972771;28;20023;-62
2021/12/14 05:23:32;;;;;;;0.45;0.45;;;6.70;99.90;;;;;;4972703;28;20034;-62
2021/12/14 05:26:06;;;;;;;0.70;0.70;;;6.70;99.90;;;;;;4973612;28;20093;-62
2021/12/14 05:28:33;;;;;;;1.23;1.13;;;6.60;99.90;;;;;;4968330;28;20065;-62
2021/12/14 05:30:59;;;;;;;2.42;2.28;;;6.70;99.90;;;;;;4954760;29;20146;-62
2021/12/14 05:33:32;;;;;;;1.55;1.20;;;6.60;99.90;;;;;;4969310;28;20387;-62
2021/12/14 05:36:04;;;;;;;6.43;3.20;;;6.70;99.90;;;;;;4954058;28;20031;-64
2021/12/14 05:38:54;;;;;;;1.65;1.55;;;6.60;99.90;;;;;;4954470;28;20031;-65
2021/12/14 05:44:22;;;;;;;0.30;0.30;;;6.60;99.90;;;;;;4954485;28;20059;-64
2021/12/14 05:46:56;;;;;;;1.70;1.58;;;6.60;99.90;;;;;;4969233;28;20059;-63
2021/12/14 05:49:26;;;;;;;4.75;1.92;;;6.60;99.90;;;;;;4973448;28;20106;-66
2021/12/14 05:51:57;;;;;;;0.40;0.40;;;6.60;99.90;;;;;;4973796;28;20059;-64
2021/12/14 05:54:31;;;;;;;0.85;0.43;;;6.60;99.90;;;;;;4973373;28;20027;-63
2021/12/14 05:57:00;;;;;;;1.02;1.02;;;6.60;99.90;;;;;;4973407;28;20039;-65
2021/12/14 05:59:33;;;;;;;0.40;0.40;;;6.60;99.90;;;;;;4973431;28;20105;-64
2021/12/14 06:02:01;;;;;;;0.65;0.65;;;6.60;99.90;;;;;;4973188;28;20518;-65
2021/12/14 06:04:36;;;;;;;1.15;1.05;;;6.60;99.90;;;;;;4973121;28;20045;-65
2021/12/14 06:07:04;;;;;;;1.30;0.70;;;6.50;99.90;;;;;;4972084;28;20027;-64
2021/12/14 06:09:36;;;;;;;1.33;1.27;;;6.50;99.90;;;;;;4973620;28;20062;-64
2021/12/14 06:12:09;;;;;;;10.13;3.10;;;6.50;99.90;;;;;;4972353;28;20031;-64
2021/12/14 06:14:42;;;;;;;3.95;1.70;;;6.50;99.90;;;;;;4973333;28;20027;-64
2021/12/14 06:17:10;;;;;;;0.73;0.73;;;6.50;99.90;;;;;;4972689;28;20061;-64
2021/12/14 06:19:41;;;;;;;6.55;1.65;;;6.50;99.90;;;;;;4971889;28;20484;-64
2021/12/14 06:22:16;;;;;;;8.30;6.15;;;6.50;99.90;;;;;;4973077;28;20169;-66
2021/12/14 06:24:46;;;;;;;0.35;0.35;;;6.50;99.90;;;;;;4975829;28;20610;-65
2021/12/14 06:27:17;;;;;;;0.20;0.20;;;6.50;99.90;;;;;;4977154;28;20035;-62
2021/12/14 06:29:56;;;;;;;1.77;1.67;;;6.50;99.90;;;;;;4976146;28;20041;-65
2021/12/14 06:32:38;;;;;;;0.40;0.40;;;6.60;99.90;;;;;;4976669;28;20302;-65
2021/12/14 06:35:20;;;;;;;1.30;1.30;;;6.50;99.90;;;;;;4977081;28;20078;-65
2021/12/14 06:40:39;;;;;;;3.47;1.52;;;6.50;99.90;;;;;;4976758;28;19914;-64
2021/12/14 06:43:15;;;;;;;0.50;0.50;;;6.50;99.90;;;;;;4976680;28;20072;-64
2021/12/14 06:45:45;;;;;;;2.72;1.35;;;6.50;99.90;;;;;;4975452;28;20062;-64
2021/12/14 06:48:20;;;;;;;2.60;1.38;;;6.50;99.90;;;;;;4974960;28;20046;-63
2021/12/14 06:50:54;;;;;;;0.70;0.70;;;6.50;99.90;;;;;;4976591;28;20437;-63
2021/12/14 06:53:21;;;;;;;4.25;2.10;;;6.50;99.90;;;;;;4975781;28;20440;-64
2021/12/14 06:55:55;;;;;;;2.88;2.67;;;6.50;99.90;;;;;;4973754;28;20039;-62
2021/12/14 06:58:33;;;;;;;1.85;1.73;;;6.60;99.90;;;;;;4976261;28;20106;-62
2021/12/14 07:01:09;;;;;;;0.98;0.95;;;6.60;99.90;;;;;;4976278;28;20131;-63
2021/12/14 07:03:49;;;;;;;1.65;0.95;;;6.60;99.90;;;;;;4976204;28;20029;-62
2021/12/14 07:06:28;;;;;;;1.52;1.42;;;6.60;99.90;;;;;;4976238;28;20066;-62
2021/12/14 07:09:17;;;;;;;0.50;0.50;;;6.50;99.90;;;;;;4975126;28;20058;-63
2021/12/14 07:12:17;;;;;;;1.63;1.52;;;6.60;99.90;;;;;;4976186;28;20118;-63
2021/12/14 07:15:10;;;;;;;2.72;2.53;;;6.60;99.90;;;;;;4975672;28;20440;-63
2021/12/14 07:17:43;;;;;;;0.90;0.82;;;6.60;99.90;;;;;;4975589;28;20492;-63
2021/12/14 07:20:26;;;;;;;2.03;1.92;;;6.60;99.90;;;;;;4990989;28;20042;-63
2021/12/14 07:23:00;;;;;;;5.45;2.38;;;6.60;99.90;;;;;;4976198;28;20039;-63
2021/12/14 07:25:27;;;;;;;1.15;1.10;;;6.50;99.90;;;;;;4976045;28;20045;-63
2021/12/14 07:28:13;;;;;;;2.13;1.98;;;6.50;99.90;;;;;;4976221;28;20092;-63
2021/12/14 07:30:45;;;;;;;0.93;0.93;;;6.50;99.90;;;;;;4976289;28;20041;-63
2021/12/14 07:33:21;;;;;;;;;;;6.60;99.90;;;;;;4976497;28;20511;-62
2021/12/14 07:35:57;;;;;;;0.30;0.30;;;6.50;99.90;;;;;;4974993;28;19941;-63
2021/12/14 07:38:48;;;;;;;0.80;0.77;;;6.50;99.90;;;;;;4975990;28;20034;-63
2021/12/14 07:41:43;;;;;;;1.13;1.13;;;6.50;99.90;;;;;;4975970;28;20046;-63
2021/12/14 07:44:14;;;;;;;1.05;0.95;;;6.50;99.90;;;;;;4974395;28;20038;-63
2021/12/14 07:46:43;;;;;;;0.75;0.75;;;6.60;99.90;;;;;;4975421;28;20078;-64
2021/12/14 07:49:27;;;;;;;0.75;0.75;;;6.60;99.90;;;;;;4956550;28;20074;-64
2021/12/14 07:52:03;;;;;;;0.57;0.57;;;6.60;99.90;;;;;;4971337;28;20031;-63
2021/12/14 07:54:38;;;;;;;0.35;0.35;;;6.70;99.90;;;;;;4956072;29;20519;-64
2021/12/14 07:57:27;;;;;;;0.20;0.20;;;6.60;99.90;;;;;;4956419;28;20122;-63
2021/12/14 08:00:06;;;;;;;0.73;0.73;;;6.50;99.90;;;;;;4961997;28;20038;-64
2021/12/14 08:02:45;;;;;;;2.00;1.77;;;6.50;99.90;;;;;;4990261;28;20228;-64
2021/12/14 08:05:27;;;;;;;3.38;3.08;;;6.40;99.90;;;;;;4974275;28;20031;-63
2021/12/14 08:08:14;;;;;;;2.83;1.80;;;6.40;99.90;;;;;;4974321;28;20030;-64
2021/12/14 08:10:49;;;;;;;0.28;0.28;;;6.40;99.90;;;;;;4990306;28;20047;-63
2021/12/14 08:13:23;;;;;;;0.70;0.70;;;6.50;99.90;;;;;;4975065;28;20030;-65
2021/12/14 08:15:59;;;;;;;2.75;2.22;;;6.50;99.90;;;;;;4975405;28;20081;-64
2021/12/14 08:18:29;;;;;;;0.28;0.28;;;6.50;99.90;;;;;;4975286;28;20026;-65
2021/12/14 08:20:58;;;;;;;0.80;0.80;;;6.40;99.90;;;;;;4975474;28;20058;-64
2021/12/14 08:23:36;;;;;;;3.97;3.42;;;6.40;99.90;;;;;;4975074;28;20061;-64
2021/12/14 08:26:16;;;;;;;0.43;0.43;;;6.40;99.90;;;;;;4974760;28;20484;-64
2021/12/14 08:28:54;;;;;;;0.32;0.32;;;6.50;99.90;;;;;;4974943;28;20365;-64
2021/12/14 08:31:25;;;;;;;0.47;0.47;;;6.50;99.90;;;;;;4975002;28;20035;-64
2021/12/14 08:34:02;;;;;;;0.38;0.38;;;6.50;99.90;;;;;;4974576;28;20031;-64
2021/12/14 08:36:40;;;;;;;1.85;1.23;;;6.60;99.90;;;;;;4975155;28;20049;-64
2021/12/14 08:39:18;;;;;;;0.50;0.45;;;6.50;99.90;;;;;;4989789;28;20543;-63
2021/12/14 08:41:55;;;;;;;3.67;1.27;;;6.30;99.90;;;;;;4974680;28;20042;-63
2021/12/14 08:44:37;;;;;;;6.95;1.85;;;6.30;99.90;;;;;;4974764;28;20035;-64
2021/12/14 08:47:13;;;;;;;1.17;0.95;;;6.30;99.90;;;;;;4973213;28;20047;-64
2021/12/14 08:49:41;;;;;;;3.25;1.42;;;6.30;99.90;;;;;;4973449;28;20038;-65
2021/12/14 08:52:08;;;;;;;4.25;3.95;;;6.30;99.90;;;;;;4974211;28;20039;-64
2021/12/14 08:54:38;;;;;;;0.88;0.88;;;6.30;99.90;;;;;;4974657;28;20031;-64
2021/12/14 08:57:14;;;;;;;0.63;0.63;;;6.30;99.90;;;;;;4989265;28;20059;-63
2021/12/14 08:59:48;;;;;;;0.30;0.30;;;6.30;99.90;;;;;;4974498;28;20105;-64
2021/12/14 09:02:17;;;;;;;0.40;0.40;;;6.30;99.90;;;;;;4972902;28;20031;-64
2021/12/14 09:05:05;;;;;;;0.60;0.60;;;6.40;99.90;;;;;;4973128;28;20042;-63
2021/12/14 09:07:31;;;;;;;0.50;0.50;;;6.30;99.90;;;;;;4974410;28;20039;-64
2021/12/14 09:10:00;;;;;;;2.42;2.08;;;6.30;99.90;;;;;;4972931;28;20462;-64
2021/12/14 09:12:35;;;;;;;0.63;0.63;;;6.20;99.90;;;;;;4972969;28;20043;-64
2021/12/14 09:15:26;;;;;;;2.53;1.33;;;6.30;99.90;;;;;;4974362;28;20447;-63
2021/12/14 09:17:54;;;;;;;4.88;2.85;;;6.30;99.90;;;;;;4972905;28;20431;-63
2021/12/14 09:20:31;;;;;;;2.17;1.50;;;6.30;99.90;;;;;;4973991;28;20035;-63
2021/12/14 09:23:08;;;;;;;1.17;0.55;;;6.40;99.90;;;;;;4973042;28;20500;-64
2021/12/14 09:25:34;;;;;;;0.30;0.30;;;6.30;99.90;;;;;;4972708;28;20416;-63
2021/12/14 09:28:02;;;;;;;0.35;0.35;;;6.30;99.90;;;;;;4973958;28;20093;-64
2021/12/14 09:30:33;;;;;;;4.88;2.20;;;6.40;99.90;;;;;;4973872;28;20035;-63
2021/12/14 09:33:00;;;;;;;0.68;0.68;;;6.40;99.90;;;;;;4973923;28;20113;-64
2021/12/14 09:35:34;;;;;;;1.25;1.25;;;6.40;99.90;;;;;;4973877;28;20070;-64
2021/12/14 09:38:01;;;;;;;0.15;0.15;;;6.40;99.90;;;;;;4973803;28;20039;-64
2021/12/14 09:40:37;;;;;;;0.45;0.45;;;6.40;99.90;;;;;;4973597;28;20039;-64
2021/12/14 09:43:04;;;;;;;0.93;0.88;;;6.40;99.90;;;;;;4973719;28;20110;-65
2021/12/14 09:45:44;;;;;;;1.65;1.55;;;6.40;99.90;;;;;;4971463;28;20058;-65
2021/12/14 09:48:19;;;;;;;3.20;3.00;;;6.50;99.90;;;;;;4972062;28;20118;-64
2021/12/14 09:50:47;;;;;;;1.08;1.05;;;6.50;99.90;;;;;;4973888;28;20035;-63
2021/12/14 09:53:20;;;;;;;1.30;1.25;;;6.40;99.90;;;;;;4973487;28;20042;-63
2021/12/14 09:55:52;;;;;;;2.30;2.15;;;6.50;99.90;;;;;;4973424;28;20511;-63
2021/12/14 09:58:31;;;;;;;0.63;0.63;;;6.40;99.90;;;;;;4972923;28;20484;-63
2021/12/14 10:01:07;;;;;;;0.10;0.10;;;6.30;99.90;;;;;;4973605;28;20562;-63
2021/12/14 10:03:35;;;;;;;0.52;0.52;;;6.30;99.90;;;;;;4972216;28;20066;-63
2021/12/14 10:06:11;;;;;;;0.82;0.82;;;6.20;99.90;;;;;;4972261;28;20038;-62
2021/12/14 10:08:43;;;;;;;1.00;1.00;;;6.30;99.90;;;;;;4972669;28;20035;-63
2021/12/14 10:11:25;;;;;;;0.80;0.80;;;6.30;99.90;;;;;;4973605;28;20031;-63
2021/12/14 10:13:55;;;;;;;1.92;1.80;;;6.30;99.90;;;;;;4973231;28;20054;-63
2021/12/14 10:16:23;;;;;;;0.37;0.37;;;6.40;99.90;;;;;;4972020;28;20364;-64
2021/12/14 10:19:05;;;;;;;9.43;1.95;;;6.40;99.90;;;;;;4972363;28;20317;-62
2021/12/14 10:21:47;;;;;;;3.90;1.60;;;6.30;99.90;;;;;;4971898;28;20054;-63
2021/12/14 10:24:13;;;;;;;0.35;0.35;;;6.20;99.90;;;;;;4973504;28;20038;-64
2021/12/14 10:26:48;;;;;;;1.55;1.13;;;6.10;99.90;;;;;;4973037;28;20038;-63
2021/12/14 10:29:17;;;;;;;1.90;1.70;;;6.20;99.90;;;;;;4971980;28;20026;-63
2021/12/14 10:31:52;;;;;;;0.52;0.52;;;6.10;99.90;;;;;;4973107;28;20121;-63
2021/12/14 10:34:25;;;;;;;2.40;2.28;;;6.00;99.90;;;;;;4972936;28;20037;-64
2021/12/14 10:37:09;;;;;;;1.85;1.75;;;6.00;99.90;;;;;;4972275;28;20042;-64
2021/12/14 10:39:40;;;;;;;3.10;1.85;;;6.00;99.90;;;;;;4973466;28;20038;-64
2021/12/14 10:45:03;;;;;;;0.20;0.20;;;6.10;99.90;;;;;;4972342;28;20038;-62
2021/12/14 10:47:31;;;;;;;1.48;1.38;;;6.10;99.90;;;;;;4971403;28;20101;-65
2021/12/14 10:50:00;;;;;;;2.10;2.00;;;6.00;99.90;;;;;;4973000;28;20439;-63
2021/12/14 10:52:30;;;;;;;0.70;0.70;;;6.10;99.90;;;;;;4972839;28;20114;-62
2021/12/14 10:55:06;;;;;;;0.70;0.70;;;6.00;99.90;;;;;;4972063;28;20039;-64
2021/12/14 10:57:34;;;;;;;1.20;1.13;;;6.10;99.90;;;;;;4973149;28;20038;-64
2021/12/14 11:00:07;;;;;;;0.30;0.30;;;6.20;99.90;;;;;;4972171;28;20023;-64
2021/12/14 11:02:39;;;;;;;5.47;2.05;;;6.20;99.90;;;;;;4972604;28;20026;-63
2021/12/14 11:05:14;;;;;;;2.10;1.70;;;6.20;99.90;;;;;;4971256;28;20093;-64
2021/12/14 11:07:45;;;;;;;1.15;0.93;;;6.20;99.90;;;;;;4972324;28;20119;-64
2021/12/14 11:10:38;;;;;;;4.00;0.82;;;6.20;99.90;;;;;;4973204;28;20031;-64
2021/12/14 11:13:12;;;;;;;14.32;1.77;;;6.20;99.90;;;;;;4976660;28;20030;-64
2021/12/14 11:15:49;;;;;;;0.75;0.75;;;6.20;99.90;;;;;;4974989;28;20046;-64
2021/12/14 11:18:25;;;;;;;1.13;1.08;;;6.20;99.90;;;;;;4974947;28;20050;-63
2021/12/14 11:20:53;;;;;;;2.15;1.15;;;6.10;99.90;;;;;;4976438;28;20110;-63
2021/12/14 11:23:36;;;;;;;4.68;2.25;;;6.10;99.90;;;;;;4976143;28;20384;-63
2021/12/14 11:26:32;;;;;;;0.47;0.47;;;6.30;99.90;;;;;;4975983;28;20146;-63
2021/12/14 11:29:16;;;;;;;1.20;1.15;;;6.20;99.90;;;;;;4976379;28;20042;-63
2021/12/14 11:31:54;;;;;;;1.00;0.93;;;6.30;99.90;;;;;;4975193;28;20381;-63
2021/12/14 11:34:37;;;;;;;2.30;0.73;;;6.30;99.90;;;;;;4976032;28;20031;-63
2021/12/14 11:37:14;;;;;;;1.20;1.10;;;6.20;99.90;;;;;;4974737;28;20066;-63
2021/12/14 11:39:53;;;;;;;0.85;0.85;;;6.30;99.90;;;;;;4974787;28;20388;-63
2021/12/14 11:42:18;;;;;;;0.68;0.68;;;6.30;99.90;;;;;;4974497;28;20030;-63
2021/12/14 11:45:06;;;;;;;0.30;0.30;;;6.30;99.90;;;;;;4974400;28;20046;-63
2021/12/14 11:50:35;;;;;;;1.85;1.75;;;6.40;99.90;;;;;;4975773;28;20484;-63
2021/12/14 11:53:09;;;;;;;1.48;1.23;;;6.40;99.90;;;;;;4974464;28;20480;-63
2021/12/14 11:55:52;;;;;;;0.60;0.60;;;6.30;99.90;;;;;;4975501;28;20043;-63
2021/12/14 11:58:38;;;;;;;0.10;0.10;;;6.40;99.90;;;;;;4975873;28;20558;-63
2021/12/14 12:01:16;;;;;;;2.03;1.92;;;6.20;99.90;;;;;;4975774;28;20126;-63
2021/12/14 12:03:57;;;;;;;1.08;0.98;;;6.20;99.90;;;;;;4975518;28;20031;-63
2021/12/14 12:09:35;;;;;;;2.00;1.85;;;6.20;99.90;;;;;;4975540;28;20135;-63
2021/12/14 12:12:07;;;;;;;4.05;1.52;;;6.10;99.90;;;;;;4973978;28;20110;-63
2021/12/14 12:15:00;;;;;;;1.25;0.85;;;6.20;99.90;;;;;;4975362;28;20082;-63
2021/12/14 12:17:44;;;;;;;0.45;0.32;;;6.10;99.90;;;;;;4975099;28;20046;-64
2021/12/14 12:20:27;;;;;;;1.30;0.75;;;6.20;99.90;;;;;;4975042;28;20509;-63
2021/12/14 12:22:57;;;;;;;4.97;2.78;;;6.20;99.90;;;;;;4975023;28;20432;-63
2021/12/14 12:25:36;;;;;;;3.55;1.58;;;6.20;99.90;;;;;;4973596;28;20031;-63
2021/12/14 12:28:40;;;;;;;1.17;1.15;;;6.10;99.90;;;;;;4974129;28;20035;-63
2021/12/14 12:31:19;;;;;;;0.10;0.10;;;6.10;99.90;;;;;;4984012;28;20078;-63
2021/12/14 12:33:52;;;;;;;2.95;2.72;;;6.10;99.90;;;;;;4973702;28;20424;-62
2021/12/14 12:36:26;;;;;;;1.05;1.02;;;6.10;99.90;;;;;;4973742;28;20161;-64
2021/12/14 12:39:16;;;;;;;1.15;1.05;;;6.10;99.90;;;;;;4975012;28;20050;-63
2021/12/14 12:41:49;;;;;;;2.33;1.70;;;6.20;99.90;;;;;;4974782;28;20038;-63
2021/12/14 12:44:35;;;;;;;1.52;1.42;;;6.30;99.90;;;;;;4974770;28;20031;-64
2021/12/14 12:47:04;;;;;;;0.57;0.57;;;6.30;99.90;;;;;;4974409;28;20102;-64
2021/12/14 12:49:50;;;;;;;1.50;1.40;;;6.30;99.90;;;;;;4974321;28;20539;-63
2021/12/14 12:52:19;;;;;;;0.20;0.20;;;6.20;99.90;;;;;;4957525;28;20046;-64
2021/12/14 12:55:11;;;;;;;0.30;0.30;;;6.30;99.90;;;;;;4973360;28;20055;-64
2021/12/14 12:57:53;;;;;;;0.88;0.88;;;6.30;99.90;;;;;;4972846;28;20046;-64
2021/12/14 13:00:37;;;;;;;;;;;6.40;99.90;;;;;;4975204;28;20034;-64
2021/12/14 13:03:40;;;;;;;0.77;0.77;;;6.30;99.90;;;;;;4973122;28;19921;-64
2021/12/14 13:06:16;;;;;;;0.30;0.30;;;6.40;99.90;;;;;;4974644;28;20365;-64
2021/12/14 13:08:58;;;;;;;1.55;1.35;;;6.40;99.90;;;;;;4974188;28;20077;-64
2021/12/14 13:11:29;;;;;;;0.45;0.45;;;6.40;99.90;;;;;;4972924;28;20035;-64
2021/12/14 13:14:05;;;;;;;0.20;0.20;;;6.40;99.90;;;;;;4973150;28;20113;-63
2021/12/14 13:16:44;;;;;;;2.47;2.22;;;6.50;99.90;;;;;;4974096;28;20027;-63
2021/12/14 13:19:18;;;;;;;1.67;1.00;;;6.40;99.90;;;;;;4972759;28;20368;-64
2021/12/14 13:21:59;;;;;;;0.52;0.52;;;6.40;99.90;;;;;;4973878;28;20066;-63
2021/12/14 13:24:41;;;;;;;0.10;0.10;;;6.30;99.90;;;;;;4956897;28;20627;-63
2021/12/14 13:27:14;;;;;;;0.30;0.30;;;6.30;99.90;;;;;;4974001;28;20034;-64
2021/12/14 13:29:48;;;;;;;0.85;0.82;;;6.50;99.90;;;;;;4974087;28;20039;-64
2021/12/14 13:32:26;;;;;;;2.22;1.88;;;6.40;99.90;;;;;;4956703;28;20030;-63
2021/12/14 13:35:12;;;;;;;30.60;2.17;;;6.40;99.90;;;;;;4973688;28;20042;-63
2021/12/14 13:37:53;;;;;;;1.27;1.17;;;6.50;99.90;;;;;;4974097;28;20114;-64
2021/12/14 13:40:41;;;;;;;0.88;0.88;;;6.40;99.90;;;;;;4973935;28;20113;-64
2021/12/14 13:43:10;;;;;;;1.42;0.73;;;6.50;99.90;;;;;;4972073;28;20430;-63
2021/12/14 13:45:44;;;;;;;0.10;0.10;;;6.50;99.90;;;;;;4973052;28;20030;-63
2021/12/14 13:48:17;;;;;;;1.30;0.88;;;6.50;99.90;;;;;;4973741;28;20034;-64
2021/12/14 13:50:50;;;;;;;0.85;0.82;;;6.40;99.90;;;;;;4972719;28;20039;-63
2021/12/14 13:53:18;;;;;;;0.77;0.73;;;6.50;99.90;;;;;;4972393;28;20392;-63
2021/12/14 13:55:52;;;;;;;2.65;1.17;;;6.50;99.90;;;;;;4973662;28;20034;-64
2021/12/14 13:58:28;;;;;;;0.50;0.50;;;6.50;99.90;;;;;;4972721;28;20035;-63
2021/12/14 14:01:31;;;;;;;2.00;1.90;;;6.50;99.90;;;;;;4973532;28;20030;-64
2021/12/14 14:04:07;;;;;;;0.60;0.60;;;6.50;99.90;;;;;;4972983;28;20035;-64
2021/12/14 14:06:33;;;;;;;1.75;1.35;;;6.50;99.90;;;;;;4971881;28;20047;-63
2021/12/14 14:09:27;;;;;;;2.10;2.00;;;6.40;99.90;;;;;;4973336;28;20069;-63
2021/12/14 14:12:17;;;;;;;2.17;2.00;;;6.40;99.90;;;;;;4972114;28;20435;-63
2021/12/14 14:14:46;;;;;;;4.13;1.52;;;6.40;99.90;;;;;;4972310;28;20035;-63
2021/12/14 14:17:12;;;;;;;1.58;1.05;;;6.40;99.90;;;;;;4973273;28;20050;-63